Hlavní strana
METAR-TAF:

METAR-TAF

Letiště :

Letecká základna

Tulln an der Donau, Rakousko

zeměpisná šířka: 48-19N, zeměpisná délka: 016-07E, výška: 175 m

METAR: chybějící

Čas: 22:16 (21:16 UTC)

Předpověď počasí

Zpráva byla vytvořena před 7 hodinami a 1 minutami, v 14:15 UTC
Předpověď platná od 11 v 15 UTC do 11 v 24 UTC
Západojihozápadní vítr 18 kt s nárazy do 28 kt
Viditelnost 10 km a více
Skoro jasno ve výšce 1200 ft
Polojasno ve výšce 1500 ft
Oblačno až skoro zataženo ve výšce 2500 ft
Dočasný
od 11 v 15 UTC do 11 v 24 UTC
Viditelnost: 5000 m
Polojasno ve výšce 1200 ft
Oblačno až skoro zataženo ve výšce 1500 ft
slabé dešťové přeháňky, sníh
Změna
od 11 v 18 UTC do 11 v 20 UTC
Západní vítr 12 kt

TAF: LOXT 111415Z 1115/1124 25018G28KT 9999 FEW012 SCT015 BKN025 TEMPO 1115/1124 5000 -SHRASN SCT012 BKN015 BECMG 1118/1120 26012KT

Stav a předpovědi počasí z více než 4 000 letišť (zprávy METAR a TAF).

Červené a žluté tečky na mapě představují dostupné meteorologické stanice.

Když kurzor umístíte na tečku, zobrazí se název stanice.

Pak kliknutím zobrazíte stav a předpověď počasí.

Chcete-li změnit mapu, kliknutím na zelené tlačítko se znaménkem +mapu přiblížíte, kliknutím na zelené tlačítko se znaménkem – mapu oddálíte a kliknutím na zelené šipky přejdete na sousední mapy.


METAR-TAF: